Terminal Aerodrome Forecast
Issued by NWS

Home | Current Version | Previous Version | Text Only | Print | Product List | Glossary On
Versions: 1 2 3 4 5 6 7 8 9 10 11 12 13 14
211
FTUS45 KPSR 040520
TAFBLH
TAF
KBLH 040520Z 0406/0506 VRB04KT P6SM SKC
     FM040800 33004KT P6SM SKC
     FM041800 17015KT P6SM FEW250
      TEMPO 0421/0501 18018G24KT
     FM050100 22015KT P6SM FEW250=

USA.gov is the U.S. government's official web portal to all federal, state and local government web resources and services.